Time;durP1;ratioP1;P1;durP2;ratioP2;P2;SDS_P1;SDS_P2;PMS_P1;PMS_P2;Temp;Humidity;BMP_temperature;BMP_pressure;BME280_temperature;BME280_humidity;BME280_pressure;Samples;Min_cycle;Max_cycle;Signal;HPM_P1;HPM_P2
2023/11/04 00:00:05;;;;;;;5.40;1.50;;;13.20;96.70;;;;;;4916020;29;20135;-79
2023/11/04 00:02:34;;;;;;;4.05;1.17;;;13.20;96.70;;;;;;4916858;29;20058;-79
2023/11/04 00:05:02;;;;;;;6.00;1.70;;;13.20;96.70;;;;;;4912726;29;20131;-80
2023/11/04 00:07:31;;;;;;;3.33;1.60;;;13.20;96.70;;;;;;4911322;29;20086;-79
2023/11/04 00:10:00;;;;;;;5.57;1.63;;;13.20;96.70;;;;;;4906050;29;20498;-79
2023/11/04 00:12:28;;;;;;;3.15;1.38;;;13.20;96.70;;;;;;4910983;29;20047;-78
2023/11/04 00:14:56;;;;;;;3.17;1.05;;;13.20;96.70;;;;;;4916253;29;20462;-79
2023/11/04 00:17:26;;;;;;;4.55;1.27;;;13.20;96.70;;;;;;4918959;29;20429;-79
2023/11/04 00:19:55;;;;;;;3.38;1.20;;;13.20;96.70;;;;;;4902339;29;20048;-78
2023/11/04 00:22:23;;;;;;;3.70;1.30;;;13.20;96.70;;;;;;4910375;29;20040;-79
2023/11/04 00:24:53;;;;;;;3.85;1.08;;;13.20;96.70;;;;;;4915828;29;20047;-80
2023/11/04 00:27:21;;;;;;;4.40;1.40;;;13.20;96.70;;;;;;4913033;29;20410;-79
2023/11/04 00:29:50;;;;;;;5.55;1.35;;;13.20;96.70;;;;;;4912111;29;20040;-79
2023/11/04 00:32:19;;;;;;;5.45;1.50;;;13.20;96.70;;;;;;4910670;29;20044;-79
2023/11/04 00:34:49;;;;;;;6.05;1.42;;;13.10;96.70;;;;;;4895553;29;20048;-80
2023/11/04 00:37:17;;;;;;;5.72;1.23;;;13.20;96.70;;;;;;4893615;29;20062;-79
2023/11/04 00:39:48;;;;;;;4.22;1.35;;;13.20;96.70;;;;;;4908687;29;20510;-78
2023/11/04 00:42:15;;;;;;;2.67;1.25;;;13.20;96.70;;;;;;4893131;29;20101;-78
2023/11/04 00:44:44;;;;;;;5.65;1.58;;;13.20;96.70;;;;;;4910637;29;20147;-79
2023/11/04 00:47:12;;;;;;;5.60;1.67;;;13.20;96.70;;;;;;4910340;29;20119;-79
2023/11/04 00:49:40;;;;;;;3.30;1.42;;;13.20;96.70;;;;;;4893619;29;20048;-79
2023/11/04 00:52:10;;;;;;;4.97;1.25;;;13.20;96.70;;;;;;4917212;29;20044;-79
2023/11/04 00:54:38;;;;;;;4.90;1.20;;;13.20;96.70;;;;;;4912353;29;20554;-78
2023/11/04 00:57:06;;;;;;;3.88;1.10;;;13.20;96.70;;;;;;4928706;29;20051;-79
2023/11/04 00:59:34;;;;;;;3.20;1.30;;;13.20;96.70;;;;;;4897562;29;20127;-79
2023/11/04 01:02:02;;;;;;;3.92;1.23;;;13.20;96.70;;;;;;4900964;29;20158;-79
2023/11/04 01:04:30;;;;;;;3.92;1.00;;;13.20;96.70;;;;;;4898887;29;21043;-78
2023/11/04 01:06:59;;;;;;;4.00;1.15;;;13.20;96.70;;;;;;4896193;29;20055;-79
2023/11/04 01:09:28;;;;;;;3.60;1.10;;;13.20;96.70;;;;;;4929164;29;20070;-78
2023/11/04 01:11:56;;;;;;;4.53;1.25;;;13.20;96.70;;;;;;4895259;29;20417;-80
2023/11/04 01:14:24;;;;;;;4.25;1.42;;;13.30;96.70;;;;;;4914416;29;20043;-79
2023/11/04 01:16:52;;;;;;;2.65;1.00;;;13.30;96.70;;;;;;4897876;29;20052;-80
2023/11/04 01:19:20;;;;;;;4.85;0.93;;;13.30;96.70;;;;;;4936261;29;20091;-78
2023/11/04 01:21:48;;;;;;;3.92;0.63;;;13.20;96.70;;;;;;4904638;29;20603;-79
2023/11/04 01:24:16;;;;;;;4.63;1.25;;;13.30;96.70;;;;;;4913057;29;20514;-79
2023/11/04 01:26:47;;;;;;;5.13;0.90;;;13.30;96.70;;;;;;4911142;29;20048;-79
2023/11/04 01:29:15;;;;;;;6.72;1.30;;;13.30;96.70;;;;;;4913828;29;20039;-78
2023/11/04 01:31:44;;;;;;;5.00;1.27;;;13.20;96.70;;;;;;4911456;29;20561;-80
2023/11/04 01:34:12;;;;;;;4.32;1.23;;;13.20;96.70;;;;;;4912056;29;20467;-79
2023/11/04 01:36:40;;;;;;;5.82;1.13;;;13.10;96.70;;;;;;4910441;29;20067;-80
2023/11/04 01:39:10;;;;;;;3.90;1.20;;;13.10;96.70;;;;;;4928087;29;20126;-80
2023/11/04 01:41:38;;;;;;;4.13;1.17;;;13.10;96.70;;;;;;4895368;29;20066;-79
2023/11/04 01:44:07;;;;;;;6.00;1.20;;;13.10;96.70;;;;;;4911557;29;20053;-80
2023/11/04 01:46:35;;;;;;;3.28;1.25;;;13.10;96.70;;;;;;4896933;29;20563;-79
2023/11/04 01:49:04;;;;;;;3.53;1.10;;;13.10;96.70;;;;;;4910607;29;20058;-79
2023/11/04 01:51:32;;;;;;;6.30;1.20;;;13.10;96.70;;;;;;4910103;29;20996;-78
2023/11/04 01:54:01;;;;;;;4.80;0.90;;;13.10;96.70;;;;;;4916792;29;20047;-80
2023/11/04 01:56:33;;;;;;;4.20;1.30;;;13.10;96.70;;;;;;4914773;29;20055;-79
2023/11/04 01:59:03;;;;;;;7.38;1.20;;;13.10;96.70;;;;;;4929735;29;20591;-78
2023/11/04 02:01:34;;;;;;;3.42;1.00;;;13.10;96.70;;;;;;4909683;29;20052;-79
2023/11/04 02:04:03;;;;;;;3.63;1.10;;;13.10;96.70;;;;;;4933913;29;20762;-78
2023/11/04 02:06:31;;;;;;;3.22;1.20;;;13.10;96.70;;;;;;4909549;29;20096;-79
2023/11/04 02:09:00;;;;;;;3.85;1.52;;;13.10;96.70;;;;;;4912642;29;20051;-78
2023/11/04 02:11:28;;;;;;;4.75;1.00;;;13.10;96.70;;;;;;4940883;29;20040;-79
2023/11/04 02:13:56;;;;;;;2.95;1.02;;;13.10;96.70;;;;;;4915183;29;20057;-78
2023/11/04 02:16:24;;;;;;;4.28;0.95;;;13.10;96.70;;;;;;4910403;29;20050;-79
2023/11/04 02:18:54;;;;;;;4.82;1.45;;;13.00;96.70;;;;;;4911651;29;20098;-78
2023/11/04 02:21:24;;;;;;;3.10;1.05;;;13.00;96.70;;;;;;4912950;29;20052;-78
2023/11/04 02:23:52;;;;;;;4.53;0.95;;;13.00;96.70;;;;;;4923558;29;20070;-79
2023/11/04 02:26:21;;;;;;;6.07;1.40;;;12.90;96.70;;;;;;4922722;29;20051;-79
2023/11/04 02:28:49;;;;;;;4.25;1.30;;;13.00;96.70;;;;;;4904213;29;20051;-79
2023/11/04 02:31:17;;;;;;;5.15;1.40;;;13.00;96.70;;;;;;4910480;29;20051;-78
2023/11/04 02:33:46;;;;;;;4.75;1.55;;;13.00;96.70;;;;;;4894643;29;20051;-78
2023/11/04 02:36:14;;;;;;;3.72;1.27;;;13.00;96.70;;;;;;4931451;29;20121;-78
2023/11/04 02:38:43;;;;;;;3.72;1.15;;;12.90;96.70;;;;;;4940001;29;20154;-79
2023/11/04 02:41:12;;;;;;;4.00;1.13;;;12.90;96.70;;;;;;4895453;29;20110;-79
2023/11/04 02:43:40;;;;;;;4.55;1.30;;;12.90;96.70;;;;;;4910241;29;20458;-78
2023/11/04 02:46:08;;;;;;;7.20;1.40;;;12.90;96.70;;;;;;4894668;29;20560;-79
2023/11/04 02:48:36;;;;;;;4.88;1.30;;;12.90;96.70;;;;;;4910112;29;20052;-79
2023/11/04 02:51:06;;;;;;;5.43;1.40;;;12.90;96.70;;;;;;4894862;29;20051;-79
2023/11/04 02:53:34;;;;;;;3.35;0.77;;;12.90;96.70;;;;;;4894914;29;20051;-79
2023/11/04 02:56:05;;;;;;;4.90;1.00;;;12.90;96.70;;;;;;4926449;29;20110;-79
2023/11/04 02:58:34;;;;;;;3.78;0.95;;;12.90;96.70;;;;;;4932096;29;20049;-79
2023/11/04 03:01:03;;;;;;;3.50;0.77;;;12.90;96.70;;;;;;4910439;29;20051;-78
2023/11/04 03:03:31;;;;;;;3.70;1.10;;;12.80;96.70;;;;;;4907210;29;20131;-79
2023/11/04 03:05:59;;;;;;;4.90;1.02;;;12.80;96.70;;;;;;4924269;29;20843;-79
2023/11/04 03:08:29;;;;;;;3.08;0.70;;;12.80;96.70;;;;;;4906541;29;20638;-79
2023/11/04 03:10:57;;;;;;;2.50;0.70;;;12.80;96.70;;;;;;4925779;29;20051;-79
2023/11/04 03:13:27;;;;;;;5.15;0.75;;;12.80;96.70;;;;;;4910438;29;20054;-79
2023/11/04 03:15:55;;;;;;;6.20;1.05;;;12.80;96.70;;;;;;4894192;29;20083;-79
2023/11/04 03:18:23;;;;;;;3.20;0.68;;;12.80;96.70;;;;;;4926863;29;20050;-79
2023/11/04 03:20:52;;;;;;;4.22;0.68;;;12.70;96.70;;;;;;4910118;29;20044;-78
2023/11/04 03:23:21;;;;;;;7.20;1.50;;;12.70;96.70;;;;;;4893596;29;20115;-79
2023/11/04 03:25:49;;;;;;;5.35;0.60;;;12.80;96.70;;;;;;4902294;29;20047;-78
2023/11/04 03:28:17;;;;;;;3.13;0.68;;;12.70;96.70;;;;;;4910161;29;20083;-78
2023/11/04 03:30:47;;;;;;;4.07;0.90;;;12.70;96.70;;;;;;4909558;29;20103;-78
2023/11/04 03:33:16;;;;;;;3.10;0.88;;;12.80;96.70;;;;;;4894155;29;20052;-79
2023/11/04 03:35:45;;;;;;;1.98;0.60;;;12.80;96.70;;;;;;4918872;29;20066;-80
2023/11/04 03:38:13;;;;;;;3.92;0.70;;;12.80;96.70;;;;;;4908152;29;20051;-79
2023/11/04 03:40:41;;;;;;;3.75;1.13;;;12.80;96.70;;;;;;4894404;29;20059;-78
2023/11/04 03:43:09;;;;;;;3.67;0.93;;;12.70;96.70;;;;;;4910427;29;20043;-79
2023/11/04 03:45:37;;;;;;;6.32;1.15;;;12.70;96.70;;;;;;4909743;29;20083;-79
2023/11/04 03:48:07;;;;;;;5.03;1.33;;;12.70;96.70;;;;;;4926879;29;20043;-79
2023/11/04 03:50:35;;;;;;;3.90;0.77;;;12.60;96.70;;;;;;4910880;29;20052;-79
2023/11/04 03:53:03;;;;;;;7.45;1.13;;;12.60;96.70;;;;;;4929917;29;20091;-79
2023/11/04 03:55:32;;;;;;;2.83;0.68;;;12.60;96.70;;;;;;4922900;29;20063;-78
2023/11/04 03:58:00;;;;;;;6.05;1.00;;;12.70;96.70;;;;;;4927188;29;20048;-80
2023/11/04 04:00:28;;;;;;;3.58;0.70;;;12.60;96.70;;;;;;4905852;29;20051;-78
2023/11/04 04:02:57;;;;;;;3.10;1.00;;;12.70;96.70;;;;;;4913253;29;20048;-79
2023/11/04 04:05:27;;;;;;;4.60;0.77;;;12.60;96.70;;;;;;4929196;29;20071;-80
2023/11/04 04:07:55;;;;;;;2.75;0.77;;;12.70;96.70;;;;;;4912879;29;20079;-78
2023/11/04 04:10:25;;;;;;;2.20;0.57;;;12.70;96.70;;;;;;4929879;29;20051;-78
2023/11/04 04:12:53;;;;;;;3.05;0.50;;;12.80;96.70;;;;;;4929539;29;20051;-78
2023/11/04 04:15:22;;;;;;;2.88;0.82;;;12.80;96.70;;;;;;4912923;29;20082;-79
2023/11/04 04:17:50;;;;;;;3.05;0.75;;;12.80;96.70;;;;;;4912870;29;20505;-78
2023/11/04 04:20:21;;;;;;;3.45;0.98;;;12.70;96.70;;;;;;4911902;29;20693;-80
2023/11/04 04:22:50;;;;;;;5.65;1.17;;;12.80;96.70;;;;;;4917267;29;20089;-80
2023/11/04 04:25:19;;;;;;;3.33;0.70;;;12.70;96.70;;;;;;4912428;29;20425;-80
2023/11/04 04:27:47;;;;;;;3.40;0.90;;;12.70;96.70;;;;;;4929065;29;20516;-80
2023/11/04 04:30:16;;;;;;;6.53;0.90;;;12.70;96.70;;;;;;4929952;29;20513;-80
2023/11/04 04:32:44;;;;;;;3.53;0.90;;;12.70;96.70;;;;;;4896127;29;20144;-80
2023/11/04 04:35:13;;;;;;;6.25;0.80;;;12.70;96.70;;;;;;4924064;29;20047;-80
2023/11/04 04:37:41;;;;;;;5.25;0.68;;;12.70;96.70;;;;;;4911672;29;20052;-81
2023/11/04 04:40:12;;;;;;;4.05;0.85;;;12.70;96.70;;;;;;4928526;29;20444;-80
2023/11/04 04:42:40;;;;;;;4.50;1.70;;;12.60;96.70;;;;;;4912175;29;20048;-81
2023/11/04 04:45:10;;;;;;;3.47;0.70;;;12.50;96.70;;;;;;4898284;29;20078;-80
2023/11/04 04:47:39;;;;;;;4.28;1.08;;;12.50;96.70;;;;;;4918658;29;20059;-80
2023/11/04 04:50:08;;;;;;;2.25;0.60;;;12.50;96.70;;;;;;4911444;29;20048;-79
2023/11/04 04:52:36;;;;;;;3.15;0.73;;;12.40;96.70;;;;;;4895296;29;20039;-80
2023/11/04 04:55:04;;;;;;;4.00;0.85;;;12.40;96.70;;;;;;4910701;29;20052;-79
2023/11/04 04:57:35;;;;;;;3.72;0.80;;;12.40;96.70;;;;;;4912207;29;20076;-80
2023/11/04 05:00:06;;;;;;;4.28;0.68;;;12.40;96.70;;;;;;4928652;29;20052;-80
2023/11/04 05:02:34;;;;;;;2.00;0.65;;;12.40;96.70;;;;;;4911846;29;20047;-79
2023/11/04 05:05:03;;;;;;;4.25;0.77;;;12.40;96.70;;;;;;4918078;29;20078;-80
2023/11/04 05:07:31;;;;;;;4.18;1.15;;;12.30;96.70;;;;;;4911539;29;20039;-79
2023/11/04 05:09:59;;;;;;;3.85;0.80;;;12.30;96.70;;;;;;4927871;29;20052;-80
2023/11/04 05:12:28;;;;;;;5.35;1.17;;;12.30;96.70;;;;;;4911325;29;20450;-79
2023/11/04 05:14:58;;;;;;;5.53;0.63;;;12.30;96.70;;;;;;4917039;29;20044;-80
2023/11/04 05:17:26;;;;;;;2.40;0.73;;;12.30;96.70;;;;;;4895488;29;20506;-79
2023/11/04 05:19:55;;;;;;;3.05;0.90;;;12.30;96.70;;;;;;4911072;29;20079;-79
2023/11/04 05:22:23;;;;;;;3.63;1.00;;;12.20;96.70;;;;;;4892043;29;20107;-79
2023/11/04 05:24:52;;;;;;;5.82;0.88;;;12.30;96.70;;;;;;4909194;29;20058;-80
2023/11/04 05:27:20;;;;;;;5.63;0.90;;;12.30;96.70;;;;;;4910985;29;20040;-79
2023/11/04 05:29:48;;;;;;;2.50;0.57;;;12.30;96.70;;;;;;4891749;29;20518;-80
2023/11/04 05:32:17;;;;;;;3.55;0.60;;;12.30;96.70;;;;;;4927838;29;20043;-80
2023/11/04 05:34:46;;;;;;;2.63;0.65;;;12.40;96.70;;;;;;4924690;29;20458;-80
2023/11/04 05:37:14;;;;;;;4.35;0.90;;;12.40;96.70;;;;;;4911046;29;20043;-80
2023/11/04 05:39:42;;;;;;;4.45;0.77;;;12.40;96.70;;;;;;4928366;29;20391;-79
2023/11/04 05:42:10;;;;;;;3.42;0.88;;;12.40;96.70;;;;;;4891530;29;20467;-81
2023/11/04 05:44:39;;;;;;;5.10;1.15;;;12.40;96.70;;;;;;4909021;29;20047;-80
2023/11/04 05:47:06;;;;;;;4.80;1.02;;;12.40;96.70;;;;;;4911420;29;20078;-79
2023/11/04 05:49:36;;;;;;;4.05;1.23;;;12.40;96.70;;;;;;4927713;29;20071;-81
2023/11/04 05:52:05;;;;;;;3.35;0.75;;;12.50;96.70;;;;;;4908025;29;20055;-80
2023/11/04 05:54:33;;;;;;;3.20;0.82;;;12.50;96.70;;;;;;4935360;29;20040;-80
2023/11/04 05:57:02;;;;;;;5.55;1.40;;;12.50;96.70;;;;;;4900336;29;20039;-79
2023/11/04 05:59:30;;;;;;;2.83;0.65;;;12.50;96.70;;;;;;4922539;29;20123;-80
2023/11/04 06:01:58;;;;;;;3.22;0.70;;;12.50;96.70;;;;;;4912814;29;20616;-79
2023/11/04 06:04:26;;;;;;;3.88;0.80;;;12.50;96.70;;;;;;4932804;29;20039;-81
2023/11/04 06:06:56;;;;;;;4.25;0.77;;;12.50;96.70;;;;;;4913832;29;20138;-79
2023/11/04 06:09:24;;;;;;;2.88;0.85;;;12.50;96.70;;;;;;4916468;29;20490;-80
2023/11/04 06:11:52;;;;;;;3.05;1.05;;;12.50;96.70;;;;;;4941780;29;20047;-80
2023/11/04 06:14:21;;;;;;;3.38;0.77;;;12.50;96.70;;;;;;4927906;29;20147;-80
2023/11/04 06:16:49;;;;;;;4.57;1.05;;;12.50;96.70;;;;;;4918881;29;20505;-80
2023/11/04 06:19:18;;;;;;;3.15;0.90;;;12.50;96.70;;;;;;4920126;29;20071;-80
2023/11/04 06:21:46;;;;;;;4.45;0.88;;;12.50;96.70;;;;;;4931363;29;20458;-80
2023/11/04 06:24:16;;;;;;;5.95;1.13;;;12.50;96.70;;;;;;4940808;29;20054;-80
2023/11/04 06:26:44;;;;;;;3.67;0.80;;;12.50;96.70;;;;;;4907503;29;20051;-81
2023/11/04 06:29:13;;;;;;;3.33;0.70;;;12.50;96.70;;;;;;4910451;29;20107;-80
2023/11/04 06:31:41;;;;;;;4.10;0.98;;;12.50;96.70;;;;;;4918111;29;20040;-80
2023/11/04 06:34:09;;;;;;;3.65;0.90;;;12.50;96.70;;;;;;4927897;29;20130;-80
2023/11/04 06:36:37;;;;;;;4.53;0.95;;;12.50;96.70;;;;;;4910599;29;20051;-80
2023/11/04 06:39:07;;;;;;;4.15;0.70;;;12.50;96.70;;;;;;4894890;29;20050;-80
2023/11/04 06:41:37;;;;;;;2.83;0.50;;;12.50;96.70;;;;;;4894540;29;20056;-80
2023/11/04 06:44:06;;;;;;;5.05;1.00;;;12.50;96.70;;;;;;4927245;29;20111;-80
2023/11/04 06:46:35;;;;;;;5.18;0.70;;;12.50;96.70;;;;;;4894246;29;20406;-80
2023/11/04 06:49:03;;;;;;;4.70;1.20;;;12.50;96.70;;;;;;4911118;29;20067;-80
2023/11/04 06:51:36;;;;;;;6.35;1.10;;;12.60;96.70;;;;;;4910093;29;20075;-77
2023/11/04 06:54:05;;;;;;;7.07;1.17;;;12.60;96.70;;;;;;4926018;29;20066;-78
2023/11/04 06:56:38;;;;;;;4.18;0.80;;;12.60;96.70;;;;;;4925738;29;20159;-79
2023/11/04 06:59:07;;;;;;;3.35;0.55;;;12.60;96.70;;;;;;4909766;29;20067;-81
2023/11/04 07:01:38;;;;;;;2.90;0.60;;;12.60;96.70;;;;;;4909169;29;20044;-79
2023/11/04 07:04:07;;;;;;;4.47;0.57;;;12.60;96.70;;;;;;4893950;29;20067;-81
2023/11/04 07:06:37;;;;;;;3.72;0.75;;;12.60;96.70;;;;;;4931275;29;20040;-79
2023/11/04 07:09:06;;;;;;;3.35;0.70;;;12.60;96.70;;;;;;4939052;29;20048;-81
2023/11/04 07:11:39;;;;;;;2.92;0.90;;;12.60;96.70;;;;;;4930457;29;20065;-80
2023/11/04 07:14:08;;;;;;;3.70;0.95;;;12.60;96.70;;;;;;4928295;29;20523;-80
2023/11/04 07:16:36;;;;;;;4.43;1.48;;;12.70;96.70;;;;;;4934053;29;20250;-79
2023/11/04 07:19:06;;;;;;;3.42;0.80;;;12.70;96.70;;;;;;4917670;29;20048;-80
2023/11/04 07:21:37;;;;;;;5.60;0.98;;;12.70;96.70;;;;;;4895454;29;20056;-78
2023/11/04 07:24:06;;;;;;;5.72;1.25;;;12.70;96.70;;;;;;4918272;29;20094;-79
2023/11/04 07:26:35;;;;;;;6.40;1.05;;;12.80;96.70;;;;;;4912666;29;20044;-81
2023/11/04 07:29:06;;;;;;;5.57;1.20;;;12.80;96.70;;;;;;4913467;29;20824;-80
2023/11/04 07:31:35;;;;;;;3.15;1.13;;;12.80;96.70;;;;;;4930084;29;20043;-81
2023/11/04 07:34:04;;;;;;;4.80;1.13;;;12.90;96.70;;;;;;4915336;29;20051;-78
2023/11/04 07:36:32;;;;;;;2.55;0.93;;;12.90;96.70;;;;;;4948393;29;20051;-79
2023/11/04 07:39:02;;;;;;;4.45;1.17;;;12.90;96.70;;;;;;4910291;29;20048;-80
2023/11/04 07:41:31;;;;;;;5.90;1.20;;;12.90;96.70;;;;;;4929597;29;20086;-79
2023/11/04 07:43:59;;;;;;;4.20;1.50;;;13.00;96.70;;;;;;4897060;29;20079;-79
2023/11/04 07:46:29;;;;;;;5.25;1.67;;;13.10;96.70;;;;;;4929841;29;20409;-79
2023/11/04 07:48:57;;;;;;;3.72;1.20;;;13.20;96.70;;;;;;4913036;29;20461;-79
2023/11/04 07:51:26;;;;;;;5.78;1.80;;;13.20;96.70;;;;;;4893327;29;20052;-79
2023/11/04 07:53:55;;;;;;;5.43;1.50;;;13.20;96.70;;;;;;4912082;29;20052;-83
2023/11/04 07:56:23;;;;;;;5.60;1.65;;;13.30;96.70;;;;;;4913533;29;20147;-84
2023/11/04 07:58:51;;;;;;;3.15;1.13;;;13.30;96.70;;;;;;4912800;29;20062;-84
2023/11/04 08:01:19;;;;;;;4.00;1.40;;;13.30;96.70;;;;;;4912213;29;20104;-83
2023/11/04 08:03:49;;;;;;;3.08;1.00;;;13.30;96.70;;;;;;4897286;29;20597;-83
2023/11/04 08:06:18;;;;;;;5.53;1.25;;;13.40;96.70;;;;;;4914216;29;20707;-83
2023/11/04 08:08:47;;;;;;;7.18;3.35;;;13.40;96.70;;;;;;4897302;29;20107;-83
2023/11/04 08:11:15;;;;;;;10.98;3.13;;;13.50;96.70;;;;;;4897059;29;20052;-83
2023/11/04 08:13:44;;;;;;;4.43;1.92;;;13.50;96.70;;;;;;4904019;29;20289;-84
2023/11/04 08:16:12;;;;;;;4.72;1.30;;;13.50;96.70;;;;;;4913820;29;20044;-83
2023/11/04 08:18:40;;;;;;;5.53;1.33;;;13.50;96.70;;;;;;4914136;29;20127;-84
2023/11/04 08:21:13;;;;;;;3.55;1.20;;;13.50;96.70;;;;;;4897518;29;20487;-83
2023/11/04 08:23:41;;;;;;;4.72;1.33;;;13.50;96.70;;;;;;4912108;29;20044;-83
2023/11/04 08:26:10;;;;;;;2.45;1.08;;;13.50;96.70;;;;;;4914088;29;20051;-84
2023/11/04 08:28:38;;;;;;;4.78;1.38;;;13.50;96.70;;;;;;4896389;29;20151;-84
2023/11/04 08:31:07;;;;;;;2.55;0.70;;;13.60;96.70;;;;;;4920667;29;20075;-84
2023/11/04 08:33:35;;;;;;;4.30;1.10;;;13.80;96.70;;;;;;4912107;29;20728;-84
2023/11/04 08:36:03;;;;;;;6.38;1.38;;;13.90;96.70;;;;;;4912142;29;20577;-84
2023/11/04 08:38:33;;;;;;;6.53;0.90;;;13.90;96.70;;;;;;4913335;29;20107;-84
2023/11/04 08:41:01;;;;;;;4.10;0.80;;;14.00;96.70;;;;;;4906426;29;20140;-84
2023/11/04 08:43:29;;;;;;;4.05;0.75;;;14.20;96.70;;;;;;4912287;29;20048;-83
2023/11/04 08:45:57;;;;;;;2.97;1.08;;;14.40;96.70;;;;;;4913740;29;20055;-84
2023/11/04 08:48:26;;;;;;;6.15;1.80;;;14.60;96.70;;;;;;4911949;29;20313;-84
2023/11/04 08:50:55;;;;;;;5.47;1.58;;;14.80;96.70;;;;;;4911833;29;20082;-83
2023/11/04 08:53:24;;;;;;;5.35;1.13;;;15.00;96.70;;;;;;4911888;29;20052;-83
2023/11/04 08:55:53;;;;;;;3.05;0.75;;;15.00;96.70;;;;;;4919859;29;20052;-84
2023/11/04 08:58:21;;;;;;;3.17;0.90;;;15.00;96.70;;;;;;4896474;29;20060;-83
2023/11/04 09:00:50;;;;;;;4.00;0.80;;;15.00;96.70;;;;;;4896322;29;20040;-84
2023/11/04 09:03:18;;;;;;;4.57;1.00;;;15.00;96.70;;;;;;4911703;29;20143;-83
2023/11/04 09:05:46;;;;;;;4.00;1.08;;;15.00;96.70;;;;;;4913001;29;20047;-84
2023/11/04 09:08:15;;;;;;;5.80;1.20;;;15.00;96.70;;;;;;4911856;29;20056;-84
2023/11/04 09:10:43;;;;;;;6.38;1.20;;;15.10;96.70;;;;;;4916269;29;20044;-84
2023/11/04 09:13:13;;;;;;;4.30;1.00;;;15.10;96.70;;;;;;4916436;29;20040;-83
2023/11/04 09:15:41;;;;;;;6.30;1.00;;;15.30;96.70;;;;;;4908946;29;20063;-84
2023/11/04 09:18:09;;;;;;;8.93;1.42;;;15.40;96.70;;;;;;4895927;29;20052;-83
2023/11/04 09:20:43;;;;;;;4.32;1.10;;;15.40;96.70;;;;;;4905483;29;21501;-83
2023/11/04 09:23:11;;;;;;;3.25;1.00;;;15.50;96.70;;;;;;4911040;29;20459;-83
2023/11/04 09:25:39;;;;;;;7.18;1.08;;;15.50;96.70;;;;;;4911458;29;20059;-83
2023/11/04 09:28:07;;;;;;;5.10;1.17;;;15.60;96.70;;;;;;4911365;29;20225;-83
2023/11/04 09:30:37;;;;;;;3.85;1.27;;;15.60;96.70;;;;;;4911248;29;20072;-83
2023/11/04 09:33:05;;;;;;;6.00;1.23;;;15.70;96.70;;;;;;4911239;29;20107;-83
2023/11/04 09:35:33;;;;;;;5.22;1.10;;;15.70;96.70;;;;;;4911753;29;20122;-83
2023/11/04 09:38:02;;;;;;;4.70;1.50;;;15.60;96.70;;;;;;4915481;29;20066;-83
2023/11/04 09:40:30;;;;;;;4.45;1.20;;;15.70;96.70;;;;;;4924291;29;20669;-83
2023/11/04 09:42:58;;;;;;;3.70;0.98;;;15.90;96.70;;;;;;4912505;29;20044;-83
2023/11/04 09:45:26;;;;;;;6.18;1.42;;;16.00;96.70;;;;;;4910826;29;20138;-83
2023/11/04 09:47:56;;;;;;;5.15;1.70;;;16.10;96.70;;;;;;4910076;29;20036;-83
2023/11/04 09:50:26;;;;;;;4.30;1.10;;;16.20;96.70;;;;;;4910942;29;20088;-84
2023/11/04 09:53:00;;;;;;;4.85;0.98;;;16.10;96.70;;;;;;4911055;29;20103;-83
2023/11/04 09:55:28;;;;;;;6.28;1.05;;;16.30;96.70;;;;;;4910270;29;20099;-83
2023/11/04 09:57:57;;;;;;;7.60;1.75;;;16.40;96.70;;;;;;4911563;29;20554;-83
2023/11/04 10:00:27;;;;;;;7.55;1.67;;;16.40;96.70;;;;;;4919356;29;20060;-83
2023/11/04 10:02:57;;;;;;;7.75;1.70;;;16.50;96.70;;;;;;4912247;29;20048;-83
2023/11/04 10:05:27;;;;;;;4.85;1.25;;;16.40;96.70;;;;;;4910115;29;20048;-82
2023/11/04 10:07:56;;;;;;;5.72;1.55;;;16.40;96.70;;;;;;4910127;29;20112;-82
2023/11/04 10:10:24;;;;;;;6.50;1.00;;;16.30;96.70;;;;;;4894995;29;20052;-83
2023/11/04 10:12:58;;;;;;;8.18;1.05;;;16.40;96.70;;;;;;4904360;29;20052;-83
2023/11/04 10:15:26;;;;;;;6.05;1.55;;;16.40;96.70;;;;;;4894754;29;20568;-82
2023/11/04 10:17:56;;;;;;;6.07;1.15;;;16.30;96.70;;;;;;4909981;29;20147;-84
2023/11/04 10:20:25;;;;;;;5.03;0.90;;;16.40;96.70;;;;;;4919628;29;20062;-83
2023/11/04 10:22:53;;;;;;;6.00;1.08;;;16.50;96.70;;;;;;4894977;29;20716;-83
2023/11/04 10:25:22;;;;;;;8.15;1.20;;;16.70;96.70;;;;;;4896615;29;20111;-83
2023/11/04 10:27:50;;;;;;;4.25;0.98;;;16.80;96.70;;;;;;4917895;29;20111;-83
2023/11/04 10:30:18;;;;;;;6.70;1.05;;;16.90;96.70;;;;;;4910363;29;20051;-83
2023/11/04 10:32:52;;;;;;;8.18;1.17;;;17.00;96.70;;;;;;4911215;29;20044;-83
2023/11/04 10:35:24;;;;;;;4.25;0.98;;;17.30;96.70;;;;;;4910430;29;20056;-83
2023/11/04 10:37:54;;;;;;;5.60;1.10;;;17.20;96.70;;;;;;4910015;29;20058;-83
2023/11/04 10:40:24;;;;;;;4.80;0.90;;;17.10;96.70;;;;;;4907091;29;20044;-83
2023/11/04 10:43:00;;;;;;;3.30;0.63;;;17.20;96.70;;;;;;4911546;29;20048;-83
2023/11/04 10:45:36;;;;;;;4.10;0.98;;;17.40;96.70;;;;;;4909780;29;20104;-82
2023/11/04 10:48:13;;;;;;;4.07;0.70;;;17.60;96.70;;;;;;4901958;29;20080;-83
2023/11/04 10:50:46;;;;;;;5.32;0.73;;;17.60;96.70;;;;;;4904981;29;20471;-83
2023/11/04 10:53:38;;;;;;;8.23;0.70;;;17.80;96.70;;;;;;4911303;29;20049;-83
2023/11/04 10:56:11;;;;;;;4.22;0.90;;;18.00;96.70;;;;;;4909697;29;20558;-83
2023/11/04 10:58:45;;;;;;;6.60;0.77;;;17.90;96.70;;;;;;4909835;29;20088;-82
2023/11/04 11:01:14;;;;;;;5.28;1.15;;;18.00;96.70;;;;;;4897743;29;20119;-83
2023/11/04 11:03:43;;;;;;;6.45;0.82;;;17.80;96.70;;;;;;4914036;29;20044;-83
2023/11/04 11:06:14;;;;;;;4.20;0.88;;;17.60;96.70;;;;;;4898646;29;20104;-83
2023/11/04 11:08:46;;;;;;;3.95;0.73;;;17.70;96.70;;;;;;4923330;29;20541;-83
2023/11/04 11:11:19;;;;;;;6.53;0.90;;;17.90;96.70;;;;;;4920329;29;20070;-84
2023/11/04 11:13:51;;;;;;;7.40;1.02;;;18.00;96.70;;;;;;4914449;29;20406;-84
2023/11/04 11:16:19;;;;;;;9.15;1.00;;;18.10;96.70;;;;;;4906273;29;20040;-85
2023/11/04 11:18:47;;;;;;;5.47;1.20;;;18.20;96.70;;;;;;4913620;29;20127;-85
2023/11/04 11:21:21;;;;;;;6.70;0.75;;;18.20;96.70;;;;;;4898217;29;20040;-83
2023/11/04 11:23:49;;;;;;;3.17;0.68;;;18.00;96.70;;;;;;4913924;29;20083;-83
2023/11/04 11:26:17;;;;;;;5.90;0.65;;;17.90;96.70;;;;;;4913131;29;20048;-84
2023/11/04 11:28:45;;;;;;;6.45;0.88;;;17.60;96.70;;;;;;4913503;29;20217;-84
2023/11/04 11:31:13;;;;;;;3.88;0.73;;;17.40;96.70;;;;;;4914909;29;20713;-83
2023/11/04 11:33:42;;;;;;;7.28;1.17;;;16.90;96.70;;;;;;4914682;29;20574;-85
2023/11/04 11:36:13;;;;;;;5.57;1.25;;;16.70;96.70;;;;;;4913809;29;20063;-83
2023/11/04 11:38:45;;;;;;;4.30;0.80;;;16.60;96.70;;;;;;4913885;29;20236;-84
2023/11/04 11:41:15;;;;;;;6.13;1.13;;;16.70;96.70;;;;;;4906736;29;20537;-83
2023/11/04 11:43:46;;;;;;;6.47;0.80;;;16.60;96.70;;;;;;4897880;29;20495;-83
2023/11/04 11:46:14;;;;;;;7.38;0.80;;;16.70;96.70;;;;;;4912976;29;20064;-84
2023/11/04 11:48:44;;;;;;;8.32;1.52;;;16.70;96.70;;;;;;4912853;29;20779;-83
2023/11/04 11:51:14;;;;;;;7.75;1.10;;;16.70;96.70;;;;;;4913228;29;20116;-84
2023/11/04 11:53:46;;;;;;;5.82;1.00;;;17.00;96.70;;;;;;4888559;29;20414;-83
2023/11/04 11:56:15;;;;;;;6.28;0.90;;;17.10;96.70;;;;;;4897050;29;20430;-84
2023/11/04 11:58:45;;;;;;;5.45;0.82;;;17.20;96.70;;;;;;4914499;29;20052;-85
2023/11/04 12:01:15;;;;;;;7.90;0.90;;;17.50;96.70;;;;;;4897887;29;20056;-84
2023/11/04 12:03:44;;;;;;;6.05;1.17;;;17.40;96.70;;;;;;4913702;29;20040;-83
2023/11/04 12:06:13;;;;;;;6.50;1.17;;;17.40;96.70;;;;;;4906198;29;20049;-84
2023/11/04 12:08:41;;;;;;;7.90;1.30;;;17.30;96.70;;;;;;4913258;29;20074;-84
2023/11/04 12:11:11;;;;;;;6.82;1.90;;;17.20;96.70;;;;;;4912358;29;20044;-85
2023/11/04 12:13:39;;;;;;;5.18;1.10;;;17.10;96.70;;;;;;4897617;29;20063;-83
2023/11/04 12:16:08;;;;;;;6.07;1.48;;;17.00;96.70;;;;;;4913514;29;20068;-84
2023/11/04 12:18:37;;;;;;;7.78;1.25;;;16.90;96.70;;;;;;4913283;29;20054;-84
2023/11/04 12:21:10;;;;;;;5.15;1.08;;;16.90;96.70;;;;;;4914260;29;20131;-84
2023/11/04 12:23:39;;;;;;;9.40;1.52;;;17.00;96.70;;;;;;4912180;29;20103;-84
2023/11/04 12:26:10;;;;;;;3.78;0.82;;;17.30;96.70;;;;;;4894349;29;20138;-84
2023/11/04 12:28:40;;;;;;;5.75;0.93;;;17.40;96.70;;;;;;4913269;29;20375;-85
2023/11/04 12:31:08;;;;;;;5.03;0.70;;;17.40;96.70;;;;;;4911703;29;20044;-85
2023/11/04 12:33:37;;;;;;;6.05;1.15;;;17.30;96.70;;;;;;4912703;29;20052;-83
2023/11/04 12:36:08;;;;;;;3.58;0.75;;;17.40;96.70;;;;;;4912698;29;20132;-84
2023/11/04 12:38:37;;;;;;;3.97;0.77;;;17.60;96.70;;;;;;4912447;29;20087;-85
2023/11/04 12:41:09;;;;;;;6.68;0.70;;;17.50;96.70;;;;;;4912567;29;20048;-84
2023/11/04 12:43:39;;;;;;;3.80;0.70;;;17.60;96.70;;;;;;4911951;29;20051;-84
2023/11/04 12:46:10;;;;;;;4.88;0.85;;;17.60;96.70;;;;;;4896591;29;20064;-84
2023/11/04 12:48:38;;;;;;;4.20;0.63;;;17.60;96.70;;;;;;4913629;29;20044;-84
2023/11/04 12:51:07;;;;;;;3.90;0.98;;;17.80;96.70;;;;;;4919911;29;20052;-84
2023/11/04 12:53:38;;;;;;;4.68;0.70;;;18.00;96.70;;;;;;4913345;29;20131;-84
2023/11/04 12:56:08;;;;;;;7.65;0.90;;;18.40;96.70;;;;;;4924444;29;20518;-84